This is the latest recevied weather packets stored in our database for station/object YC0TBU-4. If no packets are shown the sender has not sent any weather packets the latest 10 day(s).
| Time | Temp. | Humidity | Pressure | Rain* | Wind** | Luminosity | Snow |
|---|---|---|---|---|---|---|---|
| 1777883017 | 30° C | 45% | 1008.1 hPa | - | - | - | - |
| 1777882082 | 31.67° C | 39% | 1008.2 hPa | - | - | - | - |
| 1777881147 | 31.67° C | 39% | 1007.9 hPa | - | - | - | - |
| 1777880212 | 30.56° C | 40% | 1007.6 hPa | - | - | - | - |
| 1777879277 | 31.11° C | 38% | 1007.4 hPa | - | - | - | - |
| 1777569475 | 30° C | 39% | 1013.6 hPa | - | - | - | - |
| 1777568540 | 30° C | 39% | 1013.6 hPa | - | - | - | - |
| 1777567605 | 30° C | 40% | 1013.7 hPa | - | - | - | - |
| 1777566670 | 30° C | 40% | 1013.9 hPa | - | - | - | - |
| 1777565735 | 30° C | 40% | 1013.4 hPa | - | - | - | - |
| 1777564800 | 30° C | 41% | 1013.7 hPa | - | - | - | - |
| 1777563865 | 30° C | 41% | 1013.8 hPa | - | - | - | - |
| 1777562930 | 30.56° C | 40% | 1014.1 hPa | - | - | - | - |
| 1777561978 | 30.56° C | 40% | 1014.6 hPa | - | - | - | - |
| 1777561043 | 31.67° C | 37% | 1014.7 hPa | - | - | - | - |
| 1777560115 | 31.67° C | 37% | 1014.5 hPa | - | - | - | - |
| 1777559173 | 30.56° C | 39% | 1014.1 hPa | - | - | - | - |
| 1777558238 | 28.33° C | 43% | 1013.8 hPa | - | - | - | - |
| 1777557303 | 27.78° C | 44% | 1014 hPa | - | - | - | - |
| 1777556368 | 30.56° C | 40% | 1013.3 hPa | - | - | - | - |
| 1777555433 | 29.44° C | 41% | 1012.6 hPa | - | - | - | - |
| 1777554498 | 30.56° C | 39% | 1012.3 hPa | - | - | - | - |
| 1777553563 | 28.89° C | 42% | 1012.4 hPa | - | - | - | - |
| 1777552628 | 29.44° C | 41% | 1011 hPa | - | - | - | - |
| 1777551693 | 27.78° C | 44% | 1011.4 hPa | - | - | - | - |
* Rain since midnight (hover to see other rain measurements)
** Current wind speed in m/s (hover to see current wind gust speed)